createdAt,value
2019-05-13T00:02:25.436Z,99.90
2019-05-13T00:04:53.337Z,99.90
2019-05-13T00:07:21.220Z,99.90
2019-05-13T00:09:49.044Z,99.90
2019-05-13T00:12:16.871Z,99.90
2019-05-13T00:14:44.654Z,99.90
2019-05-13T00:17:14.554Z,99.90
2019-05-13T00:19:44.121Z,99.90
2019-05-13T00:22:13.919Z,99.90
2019-05-13T00:24:43.712Z,99.90
2019-05-13T00:27:11.279Z,99.90
2019-05-13T00:29:39.075Z,99.90
2019-05-13T00:32:06.837Z,99.90
2019-05-13T00:34:34.661Z,99.90
2019-05-13T00:37:08.714Z,99.90
2019-05-13T00:39:33.630Z,99.90
2019-05-13T00:42:03.763Z,99.90
2019-05-13T00:44:33.588Z,99.90
2019-05-13T00:47:01.165Z,99.90
2019-05-13T00:49:28.963Z,99.90
2019-05-13T00:51:56.747Z,99.90
2019-05-13T00:54:24.579Z,99.90
2019-05-13T00:56:54.644Z,99.90
2019-05-13T00:59:24.105Z,99.90
2019-05-13T01:01:53.272Z,99.90
2019-05-13T01:04:23.219Z,99.90
2019-05-13T01:06:51.056Z,99.90
2019-05-13T01:09:18.854Z,99.90
2019-05-13T01:11:46.622Z,99.90
2019-05-13T01:14:14.528Z,99.90
2019-05-13T01:16:44.322Z,99.90
2019-05-13T01:19:14.255Z,99.90
2019-05-13T01:21:44.564Z,99.90
2019-05-13T01:24:14.461Z,99.90
2019-05-13T01:26:43.809Z,99.90
2019-05-13T01:29:13.483Z,99.90
2019-05-13T01:31:43.400Z,99.90
2019-05-13T01:34:11.175Z,99.90
2019-05-13T01:36:38.981Z,99.90
2019-05-13T01:39:06.909Z,99.90
2019-05-13T01:41:34.779Z,99.90
2019-05-13T01:44:04.043Z,99.90
2019-05-13T01:46:34.511Z,99.90
2019-05-13T01:49:04.938Z,99.90
2019-05-13T01:51:33.464Z,99.90
2019-05-13T01:54:03.959Z,99.90
2019-05-13T01:56:33.812Z,99.90
2019-05-13T01:59:05.744Z,99.90
2019-05-13T02:01:33.866Z,99.90
2019-05-13T02:04:03.903Z,99.90
2019-05-13T02:06:33.597Z,99.90
2019-05-13T02:09:03.822Z,99.90
2019-05-13T02:11:31.002Z,99.90
2019-05-13T02:13:58.804Z,99.90
2019-05-13T02:16:26.621Z,99.90
2019-05-13T02:18:54.395Z,99.90
2019-05-13T02:21:24.177Z,99.90
2019-05-13T02:23:53.624Z,99.90
2019-05-13T02:26:23.889Z,99.90
2019-05-13T02:28:51.312Z,99.90
2019-05-13T02:31:32.501Z,99.90
2019-05-13T02:33:48.813Z,99.90
2019-05-13T02:36:16.642Z,99.90
2019-05-13T02:38:44.459Z,99.90
2019-05-13T02:41:13.374Z,99.90
2019-05-13T02:43:45.066Z,99.90
2019-05-13T02:46:12.810Z,99.90
2019-05-13T02:48:42.220Z,99.90
2019-05-13T02:51:12.436Z,99.90
2019-05-13T02:53:43.462Z,99.90
2019-05-13T02:56:11.644Z,99.90
2019-05-13T02:58:42.568Z,99.90
2019-05-13T03:01:12.244Z,99.90
2019-05-13T03:03:38.776Z,99.90
2019-05-13T03:06:06.602Z,99.90
2019-05-13T03:08:44.975Z,99.90
2019-05-13T03:11:04.042Z,99.90
2019-05-13T03:13:32.542Z,99.90
2019-05-13T03:16:13.349Z,99.90
2019-05-13T03:18:43.405Z,99.90
2019-05-13T03:21:12.692Z,99.90
2019-05-13T03:23:43.588Z,99.90
2019-05-13T03:26:12.672Z,99.90
2019-05-13T03:28:43.718Z,99.90
2019-05-13T03:31:16.784Z,99.90
2019-05-13T03:33:46.834Z,99.90
2019-05-13T03:36:16.436Z,99.90
2019-05-13T03:38:59.342Z,99.90
2019-05-13T03:41:12.752Z,99.90
2019-05-13T03:43:43.318Z,99.90
2019-05-13T03:46:12.406Z,99.90
2019-05-13T03:48:42.858Z,99.90
2019-05-13T03:51:13.426Z,99.90
2019-05-13T03:53:43.177Z,99.90
2019-05-13T03:56:12.898Z,99.90
2019-05-13T03:58:43.286Z,99.90
2019-05-13T04:01:13.063Z,99.90
2019-05-13T04:03:43.512Z,99.90
2019-05-13T04:06:13.636Z,99.90
2019-05-13T04:08:43.032Z,99.90
2019-05-13T04:11:12.599Z,99.90
2019-05-13T04:13:42.540Z,99.90
2019-05-13T04:16:12.369Z,99.90
2019-05-13T04:18:38.963Z,99.90
2019-05-13T04:21:07.074Z,99.90
2019-05-13T04:23:34.978Z,99.90
2019-05-13T04:26:03.417Z,99.90
2019-05-13T04:28:33.102Z,99.90
2019-05-13T04:31:03.607Z,99.90
2019-05-13T04:33:33.448Z,99.90
2019-05-13T04:36:02.624Z,99.90
2019-05-13T04:38:33.124Z,99.90
2019-05-13T04:41:03.453Z,99.90
2019-05-13T04:43:34.555Z,99.90
2019-05-13T04:46:02.590Z,99.90
2019-05-13T04:48:33.616Z,99.90
2019-05-13T04:51:03.083Z,99.90
2019-05-13T04:53:33.364Z,99.90
2019-05-13T04:56:03.156Z,99.90
2019-05-13T04:58:32.204Z,99.90
2019-05-13T05:01:55.378Z,99.90
2019-05-13T05:04:35.240Z,99.90
2019-05-13T05:07:42.033Z,99.90
2019-05-13T05:11:17.583Z,99.90
2019-05-13T05:14:52.207Z,99.90
2019-05-13T05:17:57.226Z,99.90
2019-05-13T05:20:52.901Z,99.90
2019-05-13T05:24:07.723Z,99.90
2019-05-13T05:27:38.110Z,99.90
2019-05-13T05:30:41.229Z,99.90
2019-05-13T05:34:17.801Z,99.90
2019-05-13T05:38:01.516Z,99.90
2019-05-13T05:40:34.748Z,99.90
2019-05-13T05:43:05.483Z,99.90
2019-05-13T05:45:36.398Z,99.90
2019-05-13T05:48:06.103Z,99.90
2019-05-13T05:50:36.063Z,99.90
2019-05-13T05:53:05.518Z,99.90
2019-05-13T05:55:35.619Z,99.90
2019-05-13T05:58:06.387Z,99.90
2019-05-13T06:00:37.617Z,99.90
2019-05-13T06:05:36.456Z,99.90
2019-05-13T06:08:04.751Z,99.90
2019-05-13T06:10:46.207Z,99.90
2019-05-13T06:13:03.655Z,99.90
2019-05-13T06:15:31.974Z,99.90
2019-05-13T06:18:02.143Z,99.90
2019-05-13T06:20:31.702Z,99.90
2019-05-13T06:23:02.027Z,99.90
2019-05-13T06:25:33.308Z,99.90
2019-05-13T06:27:58.890Z,99.90
2019-05-13T06:30:26.732Z,99.90
2019-05-13T06:32:54.536Z,99.90
2019-05-13T06:35:22.365Z,99.90
2019-05-13T06:37:52.061Z,99.90
2019-05-13T06:40:21.455Z,99.90
2019-05-13T06:42:51.957Z,99.90
2019-05-13T06:45:21.446Z,99.70
2019-05-13T06:47:51.866Z,95.30
2019-05-13T06:50:18.903Z,90.40
2019-05-13T06:52:46.688Z,86.00
2019-05-13T06:55:14.588Z,84.60
2019-05-13T06:57:42.403Z,82.40
2019-05-13T07:00:12.210Z,81.00
2019-05-13T07:02:42.551Z,82.00
2019-05-13T07:05:12.048Z,78.00
2019-05-13T07:07:42.177Z,79.80
2019-05-13T07:10:12.495Z,77.10
2019-05-13T07:12:41.163Z,74.00
2019-05-13T07:15:11.562Z,70.00
2019-05-13T07:17:41.578Z,71.30
2019-05-13T07:20:16.000Z,69.50
2019-05-13T07:22:43.868Z,67.20
2019-05-13T07:25:11.870Z,63.20
2019-05-13T07:27:42.191Z,62.60
2019-05-13T07:30:11.310Z,61.10
2019-05-13T07:32:41.880Z,62.30
2019-05-13T07:35:13.348Z,62.80
2019-05-13T07:37:42.205Z,61.60
2019-05-13T07:40:12.492Z,58.00
2019-05-13T07:42:41.992Z,57.30
2019-05-13T07:45:12.169Z,58.20
2019-05-13T07:47:41.679Z,61.80
2019-05-13T07:50:12.496Z,64.10
2019-05-13T07:52:42.263Z,63.00
2019-05-13T07:55:12.004Z,63.60
2019-05-13T07:57:42.073Z,61.00
2019-05-13T08:00:09.407Z,58.30
2019-05-13T08:02:37.216Z,55.80
2019-05-13T08:07:32.919Z,52.20
2019-05-13T08:10:03.361Z,51.30
2019-05-13T08:12:31.928Z,49.10
2019-05-13T08:15:02.938Z,49.70
2019-05-13T08:17:32.553Z,48.50
2019-05-13T08:20:03.149Z,47.70
2019-05-13T08:22:32.027Z,48.10
2019-05-13T08:25:03.084Z,49.80
2019-05-13T08:27:33.656Z,49.10
2019-05-13T08:30:02.237Z,49.50
2019-05-13T08:32:31.485Z,47.50
2019-05-13T08:35:03.151Z,46.60
2019-05-13T08:37:31.947Z,48.40
2019-05-13T08:40:01.346Z,47.40
2019-05-13T08:42:28.895Z,45.70
2019-05-13T08:44:56.704Z,43.20
2019-05-13T08:47:24.653Z,42.80
2019-05-13T08:49:52.442Z,42.10
2019-05-13T08:52:21.938Z,42.50
2019-05-13T08:54:52.210Z,40.10
2019-05-13T08:57:21.969Z,36.60
2019-05-13T08:59:51.526Z,38.60
2019-05-13T09:02:19.256Z,38.20
2019-05-13T09:04:47.051Z,37.50
2019-05-13T09:07:14.905Z,35.50
2019-05-13T09:09:42.828Z,34.00
2019-05-13T09:12:11.631Z,33.20
2019-05-13T09:14:41.665Z,33.40
2019-05-13T09:17:11.897Z,35.80
2019-05-13T09:19:41.421Z,35.20
2019-05-13T09:22:08.999Z,34.50
2019-05-13T09:24:37.920Z,34.10
2019-05-13T09:27:06.035Z,33.40
2019-05-13T09:29:33.916Z,32.80
2019-05-13T09:32:03.800Z,33.60
2019-05-13T09:34:32.805Z,36.20
2019-05-13T09:37:02.886Z,35.20
2019-05-13T09:39:32.332Z,34.30
2019-05-13T09:42:02.641Z,33.40
2019-05-13T09:44:32.755Z,34.40
2019-05-13T09:47:02.532Z,35.80
2019-05-13T09:49:32.787Z,37.50
2019-05-13T09:52:01.647Z,34.80
2019-05-13T09:54:32.611Z,33.90
2019-05-13T09:57:01.735Z,35.60
2019-05-13T09:59:31.525Z,34.40
2019-05-13T10:01:58.949Z,33.60
2019-05-13T10:04:26.785Z,34.50
2019-05-13T10:06:54.595Z,36.60
2019-05-13T10:09:22.436Z,37.00
2019-05-13T10:11:51.944Z,37.60
2019-05-13T10:14:19.971Z,36.20
2019-05-13T10:16:47.772Z,33.50
2019-05-13T10:19:15.615Z,34.70
2019-05-13T10:21:43.450Z,35.90
2019-05-13T10:24:12.554Z,35.50
2019-05-13T10:26:42.929Z,33.70
2019-05-13T10:29:11.891Z,32.50
2019-05-13T10:34:10.035Z,34.70
2019-05-13T10:36:42.092Z,37.00
2019-05-13T10:39:11.831Z,37.80
2019-05-13T10:41:42.034Z,36.70
2019-05-13T10:44:12.094Z,36.70
2019-05-13T10:46:38.976Z,39.10
2019-05-13T10:49:07.024Z,40.60
2019-05-13T10:51:34.822Z,39.00
2019-05-13T10:54:03.084Z,36.40
2019-05-13T10:56:32.743Z,36.50
2019-05-13T10:59:02.650Z,37.50
2019-05-13T11:01:32.722Z,35.80
2019-05-13T11:04:02.605Z,34.80
2019-05-13T11:06:32.106Z,34.40
2019-05-13T11:09:02.043Z,37.20
2019-05-13T11:11:32.046Z,36.40
2019-05-13T11:14:07.074Z,35.60
2019-05-13T11:16:28.774Z,34.60
2019-05-13T11:18:56.588Z,36.20
2019-05-13T11:21:24.402Z,37.00
2019-05-13T11:23:52.343Z,37.20
2019-05-13T11:26:22.120Z,40.60
2019-05-13T11:28:52.178Z,42.50
2019-05-13T11:31:21.741Z,42.50
2019-05-13T11:33:51.900Z,39.10
2019-05-13T11:36:19.554Z,39.80
2019-05-13T11:38:47.456Z,44.70
2019-05-13T11:41:17.238Z,44.10
2019-05-13T11:43:45.159Z,46.20
2019-05-13T11:46:13.095Z,46.00
2019-05-13T11:48:42.558Z,43.30
2019-05-13T11:51:13.127Z,40.40
2019-05-13T11:53:41.698Z,36.90
2019-05-13T11:56:11.477Z,34.80
2019-05-13T11:58:42.821Z,35.10
2019-05-13T12:01:09.260Z,38.00
2019-05-13T12:03:37.120Z,39.20
2019-05-13T12:06:04.958Z,38.60
2019-05-13T12:08:34.086Z,35.20
2019-05-13T12:11:04.324Z,34.10
2019-05-13T12:13:32.881Z,32.70
2019-05-13T12:16:03.857Z,35.70
2019-05-13T12:18:32.669Z,37.30
2019-05-13T12:21:03.331Z,37.20
2019-05-13T12:23:30.466Z,36.60
2019-05-13T12:25:58.330Z,35.10
2019-05-13T12:28:26.489Z,33.90
2019-05-13T12:30:54.302Z,32.90
2019-05-13T12:33:22.876Z,32.10
2019-05-13T12:35:52.990Z,32.30
2019-05-13T12:38:22.835Z,30.70
2019-05-13T12:40:52.862Z,31.20
2019-05-13T12:43:24.031Z,34.30
2019-05-13T12:45:53.052Z,36.80
2019-05-13T12:48:22.688Z,39.40
2019-05-13T12:53:21.980Z,43.00
2019-05-13T12:55:55.778Z,42.60
2019-05-13T12:58:18.771Z,38.50
2019-05-13T13:00:46.680Z,35.50
2019-05-13T13:03:14.502Z,33.90
2019-05-13T13:05:43.117Z,32.50
2019-05-13T13:08:24.453Z,31.60
2019-05-13T13:10:42.275Z,30.90
2019-05-13T13:13:10.372Z,30.70
2019-05-13T13:15:46.636Z,31.40
2019-05-13T13:18:08.162Z,30.80
2019-05-13T13:20:42.044Z,29.90
2019-05-13T13:23:05.715Z,30.00
2019-05-13T13:25:33.965Z,32.00
2019-05-13T13:28:10.543Z,34.90
2019-05-13T13:30:35.247Z,37.20
2019-05-13T13:33:02.803Z,36.90
2019-05-13T13:35:33.742Z,36.10
2019-05-13T13:38:04.092Z,35.50
2019-05-13T13:40:34.535Z,36.70
2019-05-13T13:43:05.022Z,39.10
2019-05-13T13:45:32.692Z,39.80
2019-05-13T13:48:03.806Z,35.90
2019-05-13T13:50:33.291Z,36.00
2019-05-13T13:52:58.794Z,38.00
2019-05-13T13:55:26.693Z,39.40
2019-05-13T13:57:56.661Z,38.60
2019-05-13T14:00:38.114Z,39.20
2019-05-13T14:02:56.089Z,39.30
2019-05-13T14:05:26.179Z,39.30
2019-05-13T14:07:54.232Z,41.60
2019-05-13T14:10:22.158Z,41.00
2019-05-13T14:15:21.551Z,42.20
2019-05-13T14:17:51.585Z,44.00
2019-05-13T14:20:21.815Z,44.40
2019-05-13T14:22:48.903Z,45.40
2019-05-13T14:25:16.766Z,46.00
2019-05-13T14:27:44.605Z,46.50
2019-05-13T14:30:12.676Z,46.50
2019-05-13T14:32:42.409Z,47.00
2019-05-13T14:35:12.294Z,49.60
2019-05-13T14:37:40.296Z,52.00
2019-05-13T14:40:08.842Z,51.80
2019-05-13T14:42:36.693Z,48.10
2019-05-13T14:45:05.432Z,46.30
2019-05-13T14:47:33.253Z,46.10
2019-05-13T14:50:02.131Z,46.00
2019-05-13T14:52:32.244Z,46.40
2019-05-13T14:55:02.172Z,46.40
2019-05-13T14:57:32.086Z,46.60
2019-05-13T15:00:02.183Z,47.50
2019-05-13T15:02:29.568Z,47.50
2019-05-13T15:04:58.915Z,47.90
2019-05-13T15:07:26.720Z,47.60
2019-05-13T15:09:54.712Z,51.20
2019-05-13T15:12:22.554Z,49.40
2019-05-13T15:14:52.359Z,49.40
2019-05-13T15:17:23.093Z,50.60
2019-05-13T15:19:52.501Z,51.00
2019-05-13T15:22:22.723Z,51.30
2019-05-13T15:24:51.879Z,51.30
2019-05-13T15:27:21.998Z,50.40
2019-05-13T15:29:51.625Z,55.20
2019-05-13T15:32:19.535Z,74.90
2019-05-13T15:34:51.795Z,56.70
2019-05-13T15:37:18.743Z,55.50
2019-05-13T15:39:48.490Z,55.10
2019-05-13T15:42:16.305Z,55.60
2019-05-13T15:44:44.095Z,55.00
2019-05-13T15:47:22.777Z,53.60
2019-05-13T15:49:41.612Z,53.40
2019-05-13T15:52:11.697Z,52.80
2019-05-13T15:54:41.327Z,52.60
2019-05-13T15:57:08.936Z,53.30
2019-05-13T15:59:36.723Z,53.40
2019-05-13T16:02:04.539Z,54.00
2019-05-13T16:04:32.663Z,54.80
2019-05-13T16:07:01.688Z,55.30
2019-05-13T16:09:31.400Z,56.00
2019-05-13T16:12:01.504Z,56.80
2019-05-13T16:14:31.296Z,59.00
2019-05-13T16:16:58.908Z,60.00
2019-05-13T16:19:27.056Z,61.20
2019-05-13T16:21:54.859Z,62.00
2019-05-13T16:24:22.702Z,63.60
2019-05-13T16:26:52.127Z,66.20
2019-05-13T16:29:22.287Z,55.90
2019-05-13T16:31:51.905Z,54.10
2019-05-13T16:34:22.191Z,53.60
2019-05-13T16:36:49.354Z,53.50
2019-05-13T16:39:17.210Z,64.90
2019-05-13T16:41:45.043Z,66.80
2019-05-13T16:44:12.877Z,67.80
2019-05-13T16:46:42.534Z,71.00
2019-05-13T16:51:42.357Z,88.50
2019-05-13T16:54:09.805Z,82.00
2019-05-13T16:56:37.626Z,81.20
2019-05-13T16:59:05.383Z,77.30
2019-05-13T17:01:33.214Z,55.00
2019-05-13T17:04:01.989Z,55.30
2019-05-13T17:06:32.024Z,55.70
2019-05-13T17:09:01.844Z,55.80
2019-05-13T17:11:29.419Z,56.20
2019-05-13T17:13:57.247Z,56.20
2019-05-13T17:16:25.025Z,55.80
2019-05-13T17:18:52.937Z,56.00
2019-05-13T17:21:21.251Z,55.90
2019-05-13T17:23:49.184Z,55.60
2019-05-13T17:26:17.005Z,55.60
2019-05-13T17:28:44.815Z,55.40
2019-05-13T17:31:12.635Z,55.20
2019-05-13T17:33:40.484Z,55.00
2019-05-13T17:36:08.340Z,55.00
2019-05-13T17:38:36.107Z,54.90
2019-05-13T17:41:03.957Z,55.00
2019-05-13T17:43:32.160Z,54.50
2019-05-13T17:46:00.273Z,54.70
2019-05-13T17:48:29.681Z,54.00
2019-05-13T17:50:57.799Z,54.20
2019-05-13T17:53:25.641Z,53.70
2019-05-13T17:55:53.459Z,53.40
2019-05-13T17:58:22.181Z,53.30
2019-05-13T18:00:51.988Z,53.60
2019-05-13T18:03:19.752Z,53.90
2019-05-13T18:05:47.571Z,53.80
2019-05-13T18:08:15.390Z,53.90
2019-05-13T18:10:43.211Z,54.10
2019-05-13T18:13:12.681Z,54.70
2019-05-13T18:15:40.676Z,54.10
2019-05-13T18:18:08.493Z,53.90
2019-05-13T18:20:36.313Z,54.40
2019-05-13T18:23:04.146Z,55.00
2019-05-13T18:25:31.962Z,55.10
2019-05-13T18:28:01.536Z,55.00
2019-05-13T18:30:31.620Z,55.30
2019-05-13T18:33:01.195Z,55.70
2019-05-13T18:35:31.294Z,56.20
2019-05-13T18:37:58.629Z,56.60
2019-05-13T18:40:26.409Z,56.90
2019-05-13T18:42:54.225Z,57.90
2019-05-13T18:45:22.187Z,58.30
2019-05-13T18:47:51.398Z,58.80
2019-05-13T18:50:19.406Z,59.00
2019-05-13T18:52:47.223Z,60.10
2019-05-13T18:55:15.147Z,69.30
2019-05-13T18:57:42.929Z,61.40
2019-05-13T19:00:11.486Z,60.00
2019-05-13T19:02:41.341Z,59.70
2019-05-13T19:05:11.714Z,82.50
2019-05-13T19:07:41.849Z,61.70
2019-05-13T19:10:11.533Z,61.20
2019-05-13T19:12:41.849Z,61.60
2019-05-13T19:15:11.164Z,62.50
2019-05-13T19:17:41.336Z,62.90
2019-05-13T19:20:11.378Z,63.00
2019-05-13T19:22:38.649Z,62.90
2019-05-13T19:25:06.481Z,63.50
2019-05-13T19:27:34.255Z,63.80
2019-05-13T19:30:02.152Z,64.10
2019-05-13T19:32:32.193Z,64.70
2019-05-13T19:35:02.283Z,64.90
2019-05-13T19:37:31.573Z,65.00
2019-05-13T19:40:00.725Z,65.30
2019-05-13T19:42:31.221Z,65.50
2019-05-13T19:44:58.549Z,65.30
2019-05-13T19:47:26.346Z,65.90
2019-05-13T19:49:54.210Z,66.50
2019-05-13T19:52:22.021Z,66.10
2019-05-13T19:54:51.394Z,66.40
2019-05-13T19:57:21.280Z,66.60
2019-05-13T19:59:49.088Z,66.90
2019-05-13T20:02:16.894Z,67.00
2019-05-13T20:04:44.750Z,67.60
2019-05-13T20:07:12.563Z,69.20
2019-05-13T20:09:42.553Z,69.40
2019-05-13T20:12:11.221Z,69.80
2019-05-13T20:14:39.186Z,69.90
2019-05-13T20:17:07.090Z,70.30
2019-05-13T20:19:46.590Z,70.70
2019-05-13T20:22:04.596Z,71.20
2019-05-13T20:24:32.432Z,71.80
2019-05-13T20:27:01.530Z,71.60
2019-05-13T20:29:29.551Z,71.60
2019-05-13T20:31:57.361Z,71.60
2019-05-13T20:34:25.168Z,71.60
2019-05-13T20:36:52.943Z,71.70
2019-05-13T20:39:22.471Z,71.80
2019-05-13T20:41:55.581Z,71.90
2019-05-13T20:44:22.109Z,72.10
2019-05-13T20:46:51.880Z,72.20
2019-05-13T20:49:21.723Z,71.90
2019-05-13T20:51:51.532Z,72.10
2019-05-13T20:54:21.835Z,71.90
2019-05-13T20:56:51.734Z,71.90
2019-05-13T20:59:21.466Z,71.60
2019-05-13T21:01:51.007Z,71.80
2019-05-13T21:04:18.941Z,71.50
2019-05-13T21:06:46.797Z,71.50
2019-05-13T21:09:17.198Z,71.50
2019-05-13T21:11:44.764Z,71.70
2019-05-13T21:14:12.601Z,72.30
2019-05-13T21:16:41.707Z,72.70
2019-05-13T21:19:12.228Z,73.20
2019-05-13T21:21:41.528Z,73.30
2019-05-13T21:24:09.180Z,74.30
2019-05-13T21:26:36.991Z,74.70
2019-05-13T21:29:04.757Z,75.30
2019-05-13T21:31:32.565Z,75.50
2019-05-13T21:34:01.369Z,75.80
2019-05-13T21:36:29.350Z,76.30
2019-05-13T21:38:57.181Z,76.60
2019-05-13T21:41:25.085Z,76.90
2019-05-13T21:43:52.861Z,76.80
2019-05-13T21:46:21.210Z,77.20
2019-05-13T21:48:49.369Z,77.50
2019-05-13T21:51:17.167Z,77.70
2019-05-13T21:53:44.941Z,77.90
2019-05-13T21:56:12.766Z,77.20
2019-05-13T21:58:41.641Z,77.20
2019-05-13T22:01:09.667Z,77.30
2019-05-13T22:03:37.457Z,76.10
2019-05-13T22:06:05.252Z,76.00
2019-05-13T22:08:33.032Z,75.40
2019-05-13T22:11:01.791Z,74.60
2019-05-13T22:13:31.626Z,74.90
2019-05-13T22:16:01.703Z,73.00
2019-05-13T22:18:31.450Z,72.60
2019-05-13T22:21:01.126Z,71.60
2019-05-13T22:23:28.780Z,71.20
2019-05-13T22:25:56.581Z,70.20
2019-05-13T22:28:24.400Z,69.30
2019-05-13T22:30:52.187Z,68.00
2019-05-13T22:33:21.630Z,68.00
2019-05-13T22:35:52.115Z,66.70
2019-05-13T22:38:21.300Z,65.60
2019-05-13T22:40:49.038Z,65.10
2019-05-13T22:43:16.875Z,64.30
2019-05-13T22:45:44.657Z,64.30
2019-05-13T22:48:14.943Z,64.30
2019-05-13T22:50:42.344Z,63.80
2019-05-13T22:53:12.052Z,63.60
2019-05-13T22:55:41.873Z,63.70
2019-05-13T22:58:09.604Z,63.00
2019-05-13T23:00:37.391Z,62.70
2019-05-13T23:03:05.270Z,62.30
2019-05-13T23:05:33.204Z,61.80
2019-05-13T23:08:02.164Z,61.60
2019-05-13T23:10:31.772Z,61.20
2019-05-13T23:13:01.967Z,60.90
2019-05-13T23:15:29.433Z,60.40
2019-05-13T23:17:57.245Z,59.40
2019-05-13T23:20:25.041Z,59.20
2019-05-13T23:22:52.860Z,58.60
2019-05-13T23:25:21.422Z,59.10
2019-05-13T23:27:51.308Z,58.80
2019-05-13T23:30:19.099Z,59.20
2019-05-13T23:32:47.009Z,58.90
2019-05-13T23:35:14.932Z,59.20
2019-05-13T23:37:42.732Z,59.30
2019-05-13T23:40:11.849Z,60.30
2019-05-13T23:42:39.849Z,61.70
2019-05-13T23:45:07.836Z,63.00
2019-05-13T23:47:35.605Z,64.00
2019-05-13T23:50:03.470Z,64.70
2019-05-13T23:52:31.276Z,65.20
2019-05-13T23:54:59.130Z,65.60
2019-05-13T23:57:26.906Z,65.50
2019-05-13T23:59:54.699Z,65.00
